Time;durP1;ratioP1;P1;durP2;ratioP2;P2;SDS_P1;SDS_P2;PMS_P1;PMS_P2;Temp;Humidity;BMP_temperature;BMP_pressure;BME280_temperature;BME280_humidity;BME280_pressure;Samples;Min_cycle;Max_cycle;Signal;HPM_P1;HPM_P2
2022/05/24 00:00:12;;;;;;;7.37;4.40;;;18.50;97.30;;;;;;4919001;29;20423;-87
2022/05/24 00:02:37;;;;;;;4.80;3.57;;;18.50;97.30;;;;;;4918857;29;20793;-87
2022/05/24 00:05:03;;;;;;;5.07;3.40;;;18.50;97.30;;;;;;4919351;29;20415;-87
2022/05/24 00:07:30;;;;;;;6.53;3.83;;;18.50;97.30;;;;;;4919287;29;20179;-87
2022/05/24 00:09:56;;;;;;;6.97;3.93;;;18.50;97.30;;;;;;4918359;29;20957;-87
2022/05/24 00:12:21;;;;;;;4.37;3.57;;;18.50;97.30;;;;;;4919062;29;20463;-87
2022/05/24 00:17:31;;;;;;;9.73;4.17;;;18.60;97.30;;;;;;4935361;29;20167;-86
2022/05/24 00:19:56;;;;;;;7.30;4.33;;;18.70;97.30;;;;;;4919070;29;20412;-87
2022/05/24 00:22:22;;;;;;;13.00;4.20;;;18.70;97.30;;;;;;4936056;29;20232;-87
2022/05/24 00:24:47;;;;;;;8.10;4.07;;;18.80;97.30;;;;;;4920100;29;20670;-88
2022/05/24 00:27:13;;;;;;;8.47;3.50;;;18.80;97.30;;;;;;4937399;29;20574;-87
2022/05/24 00:29:38;;;;;;;9.50;3.50;;;18.80;97.30;;;;;;4919805;29;20195;-87
2022/05/24 00:32:04;;;;;;;6.97;3.40;;;18.80;97.30;;;;;;4920108;29;20191;-88
2022/05/24 00:34:30;;;;;;;6.03;3.63;;;18.80;97.30;;;;;;4919986;29;20180;-87
2022/05/24 00:36:55;;;;;;;7.17;3.27;;;18.80;97.30;;;;;;4921869;29;20315;-87
2022/05/24 00:39:21;;;;;;;8.17;3.20;;;18.80;97.30;;;;;;4935074;29;20203;-87
2022/05/24 00:42:00;;;;;;;11.00;4.13;;;18.70;97.30;;;;;;4935895;29;20180;-87
2022/05/24 00:44:32;;;;;;;7.53;3.70;;;18.70;97.30;;;;;;4934886;29;20178;-86
2022/05/24 00:47:02;;;;;;;7.23;3.80;;;18.70;97.30;;;;;;4935551;29;20607;-87
2022/05/24 00:49:32;;;;;;;5.97;3.33;;;18.70;97.30;;;;;;4950890;29;20526;-87
2022/05/24 00:52:14;;;;;;;6.43;3.60;;;18.70;97.30;;;;;;4936554;29;20408;-86
2022/05/24 00:54:44;;;;;;;9.93;3.00;;;18.70;97.30;;;;;;4935211;29;20424;-87
2022/05/24 00:57:27;;;;;;;6.87;3.10;;;18.70;97.30;;;;;;4934723;29;20471;-86
2022/05/24 01:00:09;;;;;;;5.00;3.30;;;18.70;97.30;;;;;;4934694;29;20600;-87
2022/05/24 01:02:41;;;;;;;7.50;2.90;;;18.70;97.30;;;;;;4934500;29;20420;-86
2022/05/24 01:05:09;;;;;;;7.33;3.10;;;18.70;97.30;;;;;;4934104;29;20420;-86
2022/05/24 01:07:36;;;;;;;9.13;3.80;;;18.70;97.30;;;;;;4934150;29;20805;-86
2022/05/24 01:10:06;;;;;;;5.60;3.20;;;18.80;97.30;;;;;;4933831;29;20415;-86
2022/05/24 01:13:04;;;;;;;6.57;3.50;;;18.80;97.30;;;;;;4935216;29;20456;-86
2022/05/24 01:15:31;;;;;;;6.10;3.47;;;18.80;97.30;;;;;;4933578;29;20997;-87
2022/05/24 01:17:59;;;;;;;6.20;2.83;;;18.90;97.30;;;;;;4935450;29;20506;-86
2022/05/24 01:20:25;;;;;;;7.93;3.37;;;18.80;97.30;;;;;;4933065;29;20471;-86
2022/05/24 01:22:57;;;;;;;4.93;2.80;;;18.90;97.30;;;;;;4933118;29;20918;-86
2022/05/24 01:25:35;;;;;;;10.33;2.60;;;18.90;97.30;;;;;;4949666;28;20203;-86
2022/05/24 01:28:06;;;;;;;10.00;3.10;;;18.90;97.30;;;;;;4933658;29;20447;-86
2022/05/24 01:30:31;;;;;;;7.53;2.80;;;18.90;97.30;;;;;;4932656;29;20456;-87
2022/05/24 01:38:25;;;;;;;7.13;3.30;;;18.80;97.30;;;;;;4934415;29;20474;-86
2022/05/24 01:40:53;;;;;;;5.07;3.20;;;18.70;97.30;;;;;;4935022;29;20830;-86
2022/05/24 01:43:22;;;;;;;6.17;3.07;;;18.70;97.30;;;;;;4918193;29;20242;-86
2022/05/24 01:46:03;;;;;;;7.73;3.17;;;18.70;97.30;;;;;;4917285;29;20444;-85
2022/05/24 01:48:38;;;;;;;4.00;2.83;;;18.70;97.30;;;;;;4917537;29;20730;-86
2022/05/24 01:51:05;;;;;;;5.70;2.87;;;18.70;97.30;;;;;;4917119;29;20462;-86
2022/05/24 01:53:37;;;;;;;5.13;2.80;;;18.70;97.30;;;;;;4917165;29;20946;-86
2022/05/24 01:56:06;;;;;;;4.97;2.77;;;18.70;97.30;;;;;;4916857;29;20467;-86
2022/05/24 01:58:35;;;;;;;10.30;2.80;;;18.70;97.30;;;;;;4933113;29;20504;-86
2022/05/24 02:01:45;;;;;;;5.83;3.27;;;18.70;97.30;;;;;;4917435;29;20464;-86
2022/05/24 02:04:11;;;;;;;3.70;2.60;;;18.70;97.30;;;;;;4899255;29;20430;-87
2022/05/24 02:06:37;;;;;;;3.80;2.73;;;18.70;97.30;;;;;;4916858;29;20803;-87
2022/05/24 02:09:05;;;;;;;8.33;4.17;;;18.70;97.30;;;;;;4916248;29;20952;-87
2022/05/24 02:11:32;;;;;;;5.23;3.00;;;18.70;97.30;;;;;;4916820;29;20479;-86
2022/05/24 02:14:22;;;;;;;4.20;2.70;;;18.70;97.30;;;;;;4917076;29;20431;-86
2022/05/24 02:17:01;;;;;;;5.63;3.63;;;18.70;97.30;;;;;;4916399;29;21016;-87
2022/05/24 02:19:31;;;;;;;8.20;3.23;;;18.80;97.30;;;;;;4916623;29;20952;-86
2022/05/24 02:22:02;;;;;;;3.07;2.50;;;18.80;97.30;;;;;;4916910;29;20422;-87
2022/05/24 02:24:28;;;;;;;6.53;2.70;;;18.80;97.30;;;;;;4917053;29;20412;-86
2022/05/24 02:26:54;;;;;;;3.30;2.73;;;18.80;97.30;;;;;;4917188;29;20439;-86
2022/05/24 02:29:21;;;;;;;5.50;2.97;;;18.90;97.30;;;;;;4934653;29;20176;-87
2022/05/24 02:31:48;;;;;;;4.53;2.53;;;18.90;97.30;;;;;;4916843;29;20423;-85
2022/05/24 02:34:14;;;;;;;3.20;2.60;;;18.90;97.30;;;;;;4921270;29;20427;-86
2022/05/24 02:36:40;;;;;;;3.97;2.90;;;18.80;97.30;;;;;;4921777;29;20552;-86
2022/05/24 02:39:06;;;;;;;4.50;2.77;;;18.90;97.30;;;;;;4936954;29;20511;-87
2022/05/24 02:41:32;;;;;;;3.33;2.20;;;18.90;97.30;;;;;;4936818;29;20192;-86
2022/05/24 02:44:08;;;;;;;4.40;3.13;;;18.90;97.30;;;;;;4936239;29;20274;-85
2022/05/24 02:46:36;;;;;;;4.70;2.53;;;18.80;97.30;;;;;;4936105;29;20457;-86
2022/05/24 02:49:02;;;;;;;4.90;2.47;;;18.90;97.30;;;;;;4936111;29;20474;-86
2022/05/24 02:51:28;;;;;;;4.53;2.67;;;18.90;97.30;;;;;;4935977;29;21021;-85
2022/05/24 02:53:54;;;;;;;3.80;2.70;;;18.90;97.30;;;;;;4936089;29;20514;-85
2022/05/24 02:56:20;;;;;;;5.00;2.50;;;18.90;97.30;;;;;;4936329;29;20239;-86
2022/05/24 02:58:46;;;;;;;4.27;2.30;;;18.90;97.30;;;;;;4936171;29;20214;-85
2022/05/24 03:01:18;;;;;;;3.50;3.03;;;18.90;97.30;;;;;;4935870;29;20773;-85
2022/05/24 03:03:45;;;;;;;3.90;2.30;;;18.90;97.30;;;;;;4935534;29;20419;-86
2022/05/24 03:06:11;;;;;;;5.03;2.20;;;18.90;97.30;;;;;;4936754;29;20808;-86
2022/05/24 03:11:21;;;;;;;8.10;2.63;;;18.90;97.30;;;;;;4937371;29;20595;-88
2022/05/24 03:16:31;;;;;;;7.63;2.77;;;18.80;97.30;;;;;;4937377;29;20576;-86
2022/05/24 03:18:57;;;;;;;4.23;2.57;;;18.80;97.30;;;;;;4936182;29;20462;-85
2022/05/24 03:21:22;;;;;;;4.67;2.97;;;18.80;97.30;;;;;;4935478;29;20529;-86
2022/05/24 03:23:48;;;;;;;3.00;2.80;;;18.80;97.30;;;;;;4936241;29;20176;-88
2022/05/24 03:26:14;;;;;;;3.60;2.77;;;18.80;97.30;;;;;;4935847;29;20658;-88
2022/05/24 03:28:41;;;;;;;5.13;3.80;;;18.70;97.30;;;;;;4937396;29;20633;-87
2022/05/24 03:31:08;;;;;;;6.40;3.60;;;18.70;97.30;;;;;;4935486;29;20431;-86
2022/05/24 03:33:34;;;;;;;5.03;3.60;;;18.60;97.30;;;;;;4935258;29;20427;-88
2022/05/24 03:36:00;;;;;;;4.10;3.13;;;18.60;97.30;;;;;;4936270;29;20471;-87
2022/05/24 03:38:28;;;;;;;3.80;3.13;;;18.60;97.30;;;;;;4953201;28;20549;-86
2022/05/24 03:40:54;;;;;;;4.50;3.50;;;18.50;97.30;;;;;;4954411;28;20427;-86
2022/05/24 03:43:20;;;;;;;5.50;3.40;;;18.50;97.30;;;;;;4953828;28;20419;-86
2022/05/24 03:45:46;;;;;;;4.03;3.50;;;18.40;97.30;;;;;;4952920;28;20455;-87
2022/05/24 03:48:12;;;;;;;5.40;3.87;;;18.40;97.30;;;;;;4955302;28;20178;-86
2022/05/24 03:50:37;;;;;;;8.20;3.50;;;18.40;97.30;;;;;;4953699;28;20274;-85
2022/05/24 03:53:03;;;;;;;6.73;3.50;;;18.40;97.30;;;;;;4956297;28;20483;-86
2022/05/24 03:55:29;;;;;;;6.37;4.00;;;18.30;97.30;;;;;;4969879;28;20214;-86
2022/05/24 03:58:01;;;;;;;5.23;3.53;;;18.30;97.30;;;;;;4954428;29;20182;-87
2022/05/24 04:00:33;;;;;;;4.80;3.10;;;18.30;97.30;;;;;;4953731;29;20962;-86
2022/05/24 04:02:59;;;;;;;4.87;3.67;;;18.30;97.30;;;;;;4970181;28;20506;-86
2022/05/24 04:05:25;;;;;;;7.43;3.70;;;18.30;97.30;;;;;;4953280;29;20986;-86
2022/05/24 04:07:51;;;;;;;4.80;3.00;;;18.30;97.30;;;;;;4970040;28;20407;-87
2022/05/24 04:10:17;;;;;;;5.60;3.57;;;18.30;97.30;;;;;;4953813;28;20601;-85
2022/05/24 04:12:43;;;;;;;5.50;4.00;;;18.20;97.30;;;;;;4953753;29;20186;-86
2022/05/24 04:15:09;;;;;;;4.10;3.30;;;18.20;97.30;;;;;;4953938;29;20423;-85
2022/05/24 04:17:39;;;;;;;5.43;3.60;;;18.20;97.30;;;;;;4954428;29;20672;-85
2022/05/24 04:20:08;;;;;;;5.87;4.00;;;18.10;97.30;;;;;;4954006;29;20443;-86
2022/05/24 04:22:34;;;;;;;8.57;4.53;;;18.10;97.30;;;;;;4953430;28;20427;-85
2022/05/24 04:25:00;;;;;;;10.07;4.80;;;18.10;97.30;;;;;;4953024;28;20484;-84
2022/05/24 04:27:25;;;;;;;7.20;4.60;;;18.00;97.30;;;;;;4954975;29;21091;-85
2022/05/24 04:29:54;;;;;;;8.10;4.67;;;18.00;97.30;;;;;;4944706;29;20172;-85
2022/05/24 04:32:20;;;;;;;8.03;5.00;;;17.90;97.30;;;;;;4944676;28;20180;-86
2022/05/24 04:34:46;;;;;;;7.30;4.90;;;17.80;97.30;;;;;;4942842;29;20515;-84
2022/05/24 04:37:12;;;;;;;8.10;5.10;;;17.80;97.30;;;;;;4943740;28;20486;-86
2022/05/24 04:39:38;;;;;;;7.63;5.00;;;17.80;97.30;;;;;;4972881;28;20442;-85
2022/05/24 04:42:21;;;;;;;8.40;5.30;;;17.80;97.30;;;;;;4972505;28;20214;-85
2022/05/24 04:44:49;;;;;;;8.20;5.43;;;17.80;97.30;;;;;;4973677;28;20901;-84
2022/05/24 04:47:15;;;;;;;8.10;5.70;;;17.80;97.30;;;;;;4971804;28;20462;-85
2022/05/24 04:49:47;;;;;;;8.47;5.50;;;17.80;97.30;;;;;;4971494;28;20415;-86
2022/05/24 04:52:14;;;;;;;11.00;5.93;;;17.80;97.30;;;;;;4971235;28;20429;-85
2022/05/24 04:54:43;;;;;;;8.90;5.67;;;17.70;97.30;;;;;;4970890;28;20849;-87
2022/05/24 04:57:09;;;;;;;9.70;6.67;;;17.70;97.30;;;;;;4970882;28;20458;-86
2022/05/24 04:59:35;;;;;;;8.67;5.97;;;17.70;97.30;;;;;;4955784;29;20417;-87
2022/05/24 05:02:01;;;;;;;9.33;6.77;;;17.60;97.30;;;;;;4969902;28;20780;-86
2022/05/24 05:04:27;;;;;;;10.20;5.63;;;17.70;97.30;;;;;;4964386;28;20436;-87
2022/05/24 05:06:53;;;;;;;11.50;6.40;;;17.60;97.30;;;;;;4943418;29;20448;-89
2022/05/24 05:09:20;;;;;;;9.17;6.63;;;17.70;97.30;;;;;;4937066;29;20207;-90
2022/05/24 05:11:46;;;;;;;9.00;6.23;;;17.70;97.30;;;;;;4937146;29;20180;-91
2022/05/24 05:14:12;;;;;;;7.80;5.53;;;17.60;97.30;;;;;;4936494;29;20447;-91
2022/05/24 05:16:38;;;;;;;9.10;6.13;;;17.70;97.30;;;;;;4935456;29;20674;-90
2022/05/24 05:19:06;;;;;;;9.53;5.97;;;17.60;97.30;;;;;;4936551;29;20419;-86
2022/05/24 05:21:37;;;;;;;10.00;6.33;;;17.60;97.30;;;;;;4934171;29;20459;-84
2022/05/24 05:24:05;;;;;;;10.23;6.80;;;17.70;97.30;;;;;;4935361;29;20420;-87
2022/05/24 05:26:32;;;;;;;10.37;7.80;;;17.70;97.30;;;;;;4934526;29;20448;-86
2022/05/24 05:28:57;;;;;;;10.07;6.70;;;17.70;97.30;;;;;;4934895;29;20422;-86
2022/05/24 05:31:26;;;;;;;7.87;5.70;;;17.70;97.30;;;;;;4934792;29;20424;-86
2022/05/24 05:33:56;;;;;;;11.10;6.67;;;17.70;97.30;;;;;;4936486;29;20227;-86
2022/05/24 05:36:22;;;;;;;10.30;5.77;;;17.80;97.30;;;;;;4935090;29;20475;-86
2022/05/24 05:38:48;;;;;;;7.70;5.97;;;17.80;97.30;;;;;;4919353;29;20431;-87
2022/05/24 05:41:20;;;;;;;9.83;6.53;;;17.80;97.30;;;;;;4919506;29;20487;-86
2022/05/24 05:43:46;;;;;;;12.07;6.17;;;17.90;97.30;;;;;;4919091;29;20497;-86
2022/05/24 05:46:13;;;;;;;9.97;6.70;;;18.00;97.30;;;;;;4917908;29;20880;-86
2022/05/24 05:48:40;;;;;;;9.13;6.83;;;18.00;97.30;;;;;;4933504;29;20432;-85
2022/05/24 05:51:08;;;;;;;9.13;6.93;;;18.00;97.30;;;;;;4916764;29;20427;-86
2022/05/24 05:53:33;;;;;;;11.57;7.07;;;18.10;97.30;;;;;;4933570;29;20474;-86
2022/05/24 05:55:59;;;;;;;8.67;5.80;;;18.20;97.30;;;;;;4922969;29;20503;-86
2022/05/24 05:58:25;;;;;;;8.70;6.50;;;18.30;97.30;;;;;;4943438;29;20171;-86
2022/05/24 06:00:51;;;;;;;8.83;6.17;;;18.30;97.30;;;;;;4942451;29;20775;-88
2022/05/24 06:03:18;;;;;;;8.37;5.20;;;18.40;97.30;;;;;;4932293;29;20206;-87
2022/05/24 06:05:47;;;;;;;11.57;6.97;;;18.50;97.30;;;;;;4945753;28;20203;-87
2022/05/24 06:08:13;;;;;;;7.50;6.00;;;18.60;97.30;;;;;;4959617;28;20425;-86
2022/05/24 06:10:39;;;;;;;9.70;6.57;;;18.60;97.30;;;;;;4916235;29;20424;-86
2022/05/24 06:13:05;;;;;;;9.30;6.57;;;18.70;97.30;;;;;;4933582;29;20419;-85
2022/05/24 06:15:32;;;;;;;9.37;5.80;;;18.70;97.30;;;;;;4924277;29;20195;-86
2022/05/24 06:17:58;;;;;;;8.60;6.20;;;18.70;97.30;;;;;;4950978;29;20415;-86
2022/05/24 06:20:27;;;;;;;15.00;5.60;;;18.70;97.30;;;;;;4951262;28;20454;-87
2022/05/24 06:22:54;;;;;;;8.63;5.77;;;18.70;97.30;;;;;;4951032;29;20195;-86
2022/05/24 06:25:28;;;;;;;10.80;5.53;;;18.70;97.30;;;;;;4951258;28;20440;-85
2022/05/24 06:27:54;;;;;;;7.83;6.00;;;18.60;97.30;;;;;;4950751;29;20818;-86
2022/05/24 06:30:21;;;;;;;10.73;5.90;;;18.60;97.30;;;;;;4935050;29;20525;-86
2022/05/24 06:32:48;;;;;;;10.63;6.13;;;18.60;97.30;;;;;;4935375;29;20477;-86
2022/05/24 06:35:15;;;;;;;9.50;5.90;;;18.50;97.30;;;;;;4933250;29;20442;-85
2022/05/24 06:37:41;;;;;;;8.37;6.20;;;18.50;97.30;;;;;;4958528;28;20554;-85
2022/05/24 06:40:13;;;;;;;11.60;6.77;;;18.50;97.30;;;;;;4951300;28;20435;-85
2022/05/24 06:42:38;;;;;;;12.20;6.50;;;18.40;97.30;;;;;;4949987;28;20521;-84
2022/05/24 06:45:05;;;;;;;12.77;7.23;;;18.40;97.30;;;;;;4950036;29;20563;-85
2022/05/24 06:47:31;;;;;;;9.73;6.10;;;18.40;97.30;;;;;;4950192;28;20183;-85
2022/05/24 06:49:57;;;;;;;9.80;6.33;;;18.40;97.30;;;;;;4947771;29;20863;-86
2022/05/24 06:52:23;;;;;;;12.37;7.30;;;18.40;97.30;;;;;;4942819;29;20422;-86
2022/05/24 06:54:49;;;;;;;11.20;7.00;;;18.40;97.30;;;;;;4951097;28;20266;-86
2022/05/24 06:57:15;;;;;;;10.90;7.30;;;18.50;97.30;;;;;;4950647;28;21023;-86
2022/05/24 07:02:25;;;;;;;11.93;7.43;;;18.50;97.30;;;;;;4943733;28;20515;-85
2022/05/24 07:05:12;;;;;;;10.90;7.20;;;18.60;97.30;;;;;;4923339;29;20864;-86
2022/05/24 07:07:39;;;;;;;9.80;7.33;;;18.70;97.30;;;;;;4944539;28;20191;-87
2022/05/24 07:10:07;;;;;;;10.60;6.70;;;18.70;97.30;;;;;;4931005;29;20439;-86
2022/05/24 07:12:33;;;;;;;7.57;5.60;;;18.80;97.30;;;;;;4942244;29;20494;-85
2022/05/24 07:14:59;;;;;;;9.87;6.10;;;18.80;97.30;;;;;;4925887;29;20442;-86
2022/05/24 07:17:25;;;;;;;7.37;5.43;;;18.90;97.30;;;;;;4924103;29;20258;-86
2022/05/24 07:19:51;;;;;;;8.90;5.10;;;18.90;97.30;;;;;;4946952;28;20554;-86
2022/05/24 07:22:17;;;;;;;6.77;5.03;;;18.90;97.00;;;;;;4925811;29;20478;-84
2022/05/24 07:24:45;;;;;;;5.63;4.80;;;19.00;96.90;;;;;;4946132;29;20426;-85
2022/05/24 07:27:12;;;;;;;4.70;4.03;;;19.00;95.50;;;;;;4938045;29;20207;-86
2022/05/24 07:29:38;;;;;;;8.00;4.60;;;19.00;95.20;;;;;;4954917;29;20514;-85
2022/05/24 07:32:04;;;;;;;5.03;4.20;;;19.00;94.60;;;;;;4953785;29;20502;-86
2022/05/24 07:34:31;;;;;;;7.47;3.97;;;18.90;95.00;;;;;;4953707;29;20465;-86
2022/05/24 07:36:57;;;;;;;6.17;4.57;;;19.00;95.60;;;;;;4948820;28;20475;-84
2022/05/24 07:39:23;;;;;;;7.10;4.47;;;19.10;94.50;;;;;;4954710;28;20418;-86
2022/05/24 07:47:18;;;;;;;7.13;3.70;;;19.10;95.70;;;;;;4955571;29;20970;-86
2022/05/24 07:49:43;;;;;;;8.80;4.10;;;19.20;94.80;;;;;;4953618;29;20419;-86
2022/05/24 07:52:09;;;;;;;13.37;3.70;;;19.20;93.70;;;;;;4953748;29;20214;-86
2022/05/24 07:54:36;;;;;;;5.77;3.70;;;19.20;94.10;;;;;;4953551;29;20238;-85
2022/05/24 07:57:03;;;;;;;5.60;4.20;;;19.10;93.60;;;;;;4953561;28;20219;-88
2022/05/24 07:59:29;;;;;;;5.80;4.07;;;19.00;93.70;;;;;;4953044;29;20425;-85
2022/05/24 08:01:54;;;;;;;4.93;3.60;;;18.90;94.00;;;;;;4952262;29;20411;-85
2022/05/24 08:04:20;;;;;;;5.07;3.57;;;18.80;94.30;;;;;;4953021;29;20228;-85
2022/05/24 08:06:46;;;;;;;4.90;3.37;;;18.80;94.70;;;;;;4953327;29;20234;-86
2022/05/24 08:09:12;;;;;;;5.00;4.23;;;18.80;94.70;;;;;;4950618;29;20455;-86
2022/05/24 08:11:37;;;;;;;6.83;3.80;;;18.80;95.00;;;;;;4953322;28;20422;-86
2022/05/24 08:14:04;;;;;;;4.53;3.30;;;18.80;94.80;;;;;;4952719;29;20183;-86
2022/05/24 08:16:31;;;;;;;3.70;3.23;;;18.80;94.90;;;;;;4953345;29;20237;-86
2022/05/24 08:18:58;;;;;;;3.60;3.13;;;18.80;94.40;;;;;;4953889;29;20449;-86
2022/05/24 08:21:24;;;;;;;7.87;3.87;;;18.80;94.10;;;;;;4953001;29;20422;-85
2022/05/24 08:23:50;;;;;;;5.00;3.13;;;18.80;94.40;;;;;;4954939;29;20470;-85
2022/05/24 08:26:16;;;;;;;5.60;3.30;;;18.80;94.40;;;;;;4952983;29;20455;-87
2022/05/24 08:28:41;;;;;;;4.90;3.60;;;18.80;94.70;;;;;;4952895;29;20207;-86
2022/05/24 08:31:08;;;;;;;5.57;3.80;;;18.80;94.60;;;;;;4936480;29;20210;-86
2022/05/24 08:33:34;;;;;;;5.53;3.67;;;18.80;94.50;;;;;;4952972;29;20179;-86
2022/05/24 08:36:00;;;;;;;4.93;3.30;;;18.90;94.90;;;;;;4952974;29;21055;-86
2022/05/24 08:38:28;;;;;;;5.63;3.60;;;19.00;94.50;;;;;;4951979;29;20233;-85
2022/05/24 08:40:58;;;;;;;6.73;3.67;;;19.10;93.90;;;;;;4952490;29;20174;-86
2022/05/24 08:48:22;;;;;;;4.57;3.50;;;19.30;94.80;;;;;;4953093;29;20822;-86
2022/05/24 08:49:31;;;;;;;8.53;3.33;;;19.60;93.60;;;;;;4954397;29;20762;-84
2022/05/24 08:52:04;;;;;;;4.53;3.07;;;19.70;93.90;;;;;;4953275;29;20878;-84
2022/05/24 08:54:37;;;;;;;3.40;2.80;;;19.80;93.00;;;;;;4952775;29;20622;-85
2022/05/24 08:57:07;;;;;;;4.57;3.40;;;20.00;92.70;;;;;;4952601;29;20466;-85
2022/05/24 08:59:45;;;;;;;5.63;3.00;;;20.00;92.60;;;;;;4952845;29;20412;-85
2022/05/24 09:02:11;;;;;;;4.00;2.93;;;20.10;92.20;;;;;;4936255;29;20415;-84
2022/05/24 09:04:36;;;;;;;3.67;3.00;;;20.20;91.70;;;;;;4952694;28;20427;-84
2022/05/24 09:07:25;;;;;;;3.43;2.90;;;20.20;91.00;;;;;;4954034;28;20238;-85
2022/05/24 09:10:03;;;;;;;3.90;2.70;;;20.30;91.50;;;;;;4937045;29;20638;-85
2022/05/24 09:12:52;;;;;;;10.07;3.23;;;20.30;90.80;;;;;;4952902;29;20438;-85
2022/05/24 09:15:34;;;;;;;3.30;2.77;;;20.30;90.80;;;;;;4952522;29;20427;-84
2022/05/24 09:18:19;;;;;;;4.10;2.87;;;20.40;90.70;;;;;;4937119;29;20411;-84
2022/05/24 09:20:45;;;;;;;3.90;3.10;;;20.50;90.90;;;;;;4936768;29;20490;-85
2022/05/24 09:23:24;;;;;;;5.57;3.30;;;20.70;92.40;;;;;;4952060;29;20917;-84
2022/05/24 09:25:59;;;;;;;4.80;3.07;;;20.80;90.60;;;;;;4951643;29;20474;-83
2022/05/24 09:28:55;;;;;;;6.07;3.57;;;21.00;90.10;;;;;;4952606;29;20419;-84
2022/05/24 09:31:40;;;;;;;3.47;3.00;;;21.10;90.70;;;;;;4938157;29;20513;-84
2022/05/24 09:34:19;;;;;;;3.43;3.07;;;21.20;90.80;;;;;;4953981;29;20425;-85
2022/05/24 09:37:01;;;;;;;7.13;3.23;;;21.40;90.50;;;;;;4939138;29;20485;-84
2022/05/24 09:39:37;;;;;;;4.63;3.17;;;21.40;89.50;;;;;;4962510;28;20469;-84
2022/05/24 09:42:13;;;;;;;4.67;3.40;;;21.30;89.60;;;;;;4954306;28;20558;-85
2022/05/24 09:45:15;;;;;;;4.20;3.37;;;21.40;90.80;;;;;;4969868;28;20434;-86
2022/05/24 09:47:43;;;;;;;3.87;2.90;;;21.50;90.20;;;;;;4970222;28;20955;-84
2022/05/24 09:50:17;;;;;;;6.13;2.80;;;21.60;90.00;;;;;;4969938;28;20932;-85
2022/05/24 09:53:03;;;;;;;4.63;3.40;;;21.80;89.40;;;;;;4955105;29;20417;-84
2022/05/24 09:55:52;;;;;;;5.33;2.60;;;21.90;89.70;;;;;;4969828;28;20442;-85
2022/05/24 09:58:49;;;;;;;5.00;3.37;;;21.90;89.40;;;;;;4969901;28;20415;-84
2022/05/24 10:01:30;;;;;;;6.60;3.00;;;22.00;88.80;;;;;;4969784;28;20419;-85
2022/05/24 10:04:28;;;;;;;3.43;2.80;;;22.10;89.10;;;;;;4969975;28;20446;-85
2022/05/24 10:06:58;;;;;;;4.83;3.10;;;22.20;89.00;;;;;;4969586;28;20434;-86
2022/05/24 10:09:44;;;;;;;6.53;2.70;;;22.20;88.50;;;;;;4970023;28;20429;-85
2022/05/24 10:12:33;;;;;;;3.23;2.50;;;22.00;88.90;;;;;;4969779;28;20415;-84
2022/05/24 10:14:58;;;;;;;3.17;2.60;;;22.00;88.10;;;;;;4969754;28;20411;-85
2022/05/24 10:18:03;;;;;;;3.43;2.60;;;21.80;88.40;;;;;;4969205;28;20459;-84
2022/05/24 10:20:37;;;;;;;2.53;2.40;;;21.80;89.20;;;;;;4969805;28;20727;-85
2022/05/24 10:23:16;;;;;;;2.53;2.33;;;21.80;90.00;;;;;;4969626;28;20410;-85
2022/05/24 10:26:09;;;;;;;2.90;2.67;;;21.90;89.10;;;;;;4969386;28;20447;-85
2022/05/24 10:29:12;;;;;;;5.10;2.80;;;22.00;90.80;;;;;;4969032;28;20420;-86
2022/05/24 10:31:55;;;;;;;3.47;2.93;;;21.90;89.30;;;;;;4952999;29;20427;-85
2022/05/24 10:41:07;;;;;;;2.03;1.90;;;22.50;87.80;;;;;;4935365;29;20392;-85
2022/05/24 10:43:42;;;;;;;2.30;2.13;;;22.80;88.40;;;;;;4934417;29;20503;-86
2022/05/24 10:46:20;;;;;;;2.90;2.50;;;23.00;87.00;;;;;;4934266;29;20984;-85
2022/05/24 10:49:18;;;;;;;2.30;2.10;;;23.10;85.80;;;;;;4945745;29;20410;-87
2022/05/24 10:51:48;;;;;;;2.87;2.40;;;23.20;88.50;;;;;;4953239;29;20526;-85
2022/05/24 10:54:36;;;;;;;3.00;2.70;;;23.40;88.10;;;;;;4955521;28;20966;-86
2022/05/24 10:57:07;;;;;;;2.30;1.97;;;23.30;87.60;;;;;;4956711;29;20470;-86
2022/05/24 11:00:12;;;;;;;3.13;2.70;;;23.20;88.00;;;;;;4956940;29;20446;-86
2022/05/24 11:03:00;;;;;;;4.17;2.40;;;23.10;87.80;;;;;;4956636;29;20983;-86
2022/05/24 11:05:31;;;;;;;4.07;3.00;;;22.80;88.30;;;;;;4941422;29;20821;-86
2022/05/24 11:08:33;;;;;;;3.70;2.90;;;22.60;88.90;;;;;;4941646;29;20402;-85
2022/05/24 11:11:21;;;;;;;2.93;2.57;;;22.50;88.80;;;;;;4958382;29;20411;-88
2022/05/24 11:13:57;;;;;;;4.90;2.93;;;22.40;90.60;;;;;;4940753;29;20984;-87
2022/05/24 11:16:39;;;;;;;3.63;2.87;;;22.30;90.00;;;;;;4940953;28;20470;-87
2022/05/24 11:19:28;;;;;;;7.10;3.00;;;22.10;90.80;;;;;;4941278;29;21074;-87
2022/05/24 11:22:14;;;;;;;7.10;2.90;;;21.90;91.10;;;;;;4939873;29;20411;-87
2022/05/24 11:24:51;;;;;;;5.93;3.10;;;21.70;92.20;;;;;;4940155;29;20925;-88
2022/05/24 11:27:31;;;;;;;4.60;3.00;;;21.50;92.20;;;;;;4940446;29;20447;-87
2022/05/24 11:30:12;;;;;;;6.87;2.73;;;21.40;92.80;;;;;;4956805;29;20407;-87
2022/05/24 11:32:50;;;;;;;4.20;2.80;;;21.30;94.70;;;;;;4956523;28;20448;-87
2022/05/24 11:35:19;;;;;;;4.10;3.10;;;21.20;96.00;;;;;;4941212;29;20403;-87
2022/05/24 11:37:50;;;;;;;4.60;3.50;;;21.10;96.20;;;;;;4950105;29;20510;-86
2022/05/24 11:40:40;;;;;;;6.67;2.60;;;21.10;97.10;;;;;;4973474;28;20415;-87
2022/05/24 11:43:10;;;;;;;7.97;2.53;;;20.90;96.80;;;;;;4973054;28;20415;-86
2022/05/24 11:45:53;;;;;;;3.00;2.50;;;20.80;96.60;;;;;;4972698;28;20485;-85
2022/05/24 11:48:19;;;;;;;5.20;1.70;;;20.80;96.00;;;;;;4957254;29;20414;-86
2022/05/24 11:50:47;;;;;;;3.53;2.00;;;21.00;97.00;;;;;;4973281;28;20796;-86
2022/05/24 11:53:32;;;;;;;2.80;2.20;;;21.30;95.90;;;;;;4973496;28;20454;-88
2022/05/24 11:56:00;;;;;;;5.63;1.80;;;21.70;94.50;;;;;;4972930;28;20466;-87
2022/05/24 11:58:34;;;;;;;7.20;1.70;;;21.90;94.20;;;;;;4971749;28;22322;-86
2022/05/24 12:01:31;;;;;;;3.60;1.80;;;22.20;94.90;;;;;;4953270;28;20438;-87
2022/05/24 12:09:58;;;;;;;1.80;1.13;;;22.50;89.50;;;;;;4955597;29;20506;-87
2022/05/24 12:12:36;;;;;;;1.57;1.10;;;22.50;89.50;;;;;;4969889;28;20414;-84
2022/05/24 12:15:30;;;;;;;2.47;1.33;;;22.40;88.30;;;;;;4970053;28;20434;-86
2022/05/24 12:17:59;;;;;;;2.07;1.20;;;22.00;88.90;;;;;;4971024;28;20995;-86
2022/05/24 12:20:34;;;;;;;1.23;1.20;;;21.80;88.70;;;;;;4970635;28;20587;-85
2022/05/24 12:23:14;;;;;;;1.83;0.87;;;21.60;89.50;;;;;;4969089;28;21028;-85
2022/05/24 12:26:07;;;;;;;1.07;0.93;;;21.60;89.20;;;;;;4955106;29;20427;-84
2022/05/24 12:28:36;;;;;;;1.40;1.30;;;21.50;88.50;;;;;;4969758;28;20419;-85
2022/05/24 12:31:21;;;;;;;1.20;1.10;;;21.50;89.00;;;;;;4969866;28;20410;-85
2022/05/24 12:33:58;;;;;;;5.03;1.50;;;21.70;89.30;;;;;;4963257;28;20423;-88
2022/05/24 12:36:29;;;;;;;3.67;1.73;;;22.00;89.80;;;;;;4969944;28;20469;-86
2022/05/24 12:39:12;;;;;;;1.40;1.17;;;22.00;89.80;;;;;;4953936;28;20418;-87
2022/05/24 12:41:55;;;;;;;1.67;1.30;;;21.90;89.80;;;;;;4953230;28;20411;-86
2022/05/24 12:44:24;;;;;;;1.80;1.40;;;21.90;89.30;;;;;;4953915;29;20418;-87
2022/05/24 12:46:53;;;;;;;3.33;1.67;;;21.80;88.90;;;;;;4953658;29;20437;-84
2022/05/24 12:49:27;;;;;;;1.73;1.37;;;21.60;89.40;;;;;;4953721;29;20419;-85
2022/05/24 12:51:55;;;;;;;2.07;1.40;;;21.50;89.00;;;;;;4954503;29;20506;-84
2022/05/24 12:54:31;;;;;;;1.67;1.20;;;21.40;88.90;;;;;;4952993;28;20414;-86
2022/05/24 12:57:11;;;;;;;1.90;1.23;;;21.50;90.00;;;;;;4952928;29;20468;-86
2022/05/24 12:59:40;;;;;;;1.77;1.10;;;21.60;88.90;;;;;;4953042;29;20415;-85
2022/05/24 13:02:31;;;;;;;1.97;1.40;;;21.70;89.00;;;;;;4953009;28;20788;-86
2022/05/24 13:05:17;;;;;;;1.40;1.30;;;21.70;88.70;;;;;;4952769;28;21079;-85
2022/05/24 13:07:59;;;;;;;5.10;1.07;;;21.70;87.80;;;;;;4951928;29;20414;-86
2022/05/24 13:10:30;;;;;;;3.23;1.33;;;21.60;88.30;;;;;;4952665;29;20509;-87
2022/05/24 13:13:01;;;;;;;4.20;1.13;;;21.60;88.70;;;;;;4951703;29;20433;-86
2022/05/24 13:15:36;;;;;;;1.10;1.00;;;21.60;86.80;;;;;;4952095;29;20443;-87
2022/05/24 13:18:08;;;;;;;1.10;1.00;;;21.70;87.80;;;;;;4952245;28;20493;-87
2022/05/24 13:20:49;;;;;;;3.23;1.00;;;22.00;87.60;;;;;;4952235;28;20947;-85
2022/05/24 13:23:15;;;;;;;3.20;1.17;;;22.20;85.50;;;;;;4952383;29;20421;-85
2022/05/24 13:26:11;;;;;;;1.10;1.00;;;22.50;86.10;;;;;;4952343;28;20506;-84
2022/05/24 13:28:51;;;;;;;3.00;1.10;;;22.60;83.30;;;;;;4952781;29;20340;-86
2022/05/24 13:34:29;;;;;;;1.50;1.20;;;22.50;83.40;;;;;;4953815;29;20406;-84
2022/05/24 13:37:04;;;;;;;3.83;1.00;;;22.50;83.30;;;;;;4952201;28;21047;-86
2022/05/24 13:39:48;;;;;;;1.20;1.10;;;22.30;84.20;;;;;;4952001;29;20416;-83
2022/05/24 13:42:17;;;;;;;1.93;1.13;;;22.40;85.10;;;;;;4953190;29;20777;-86
2022/05/24 13:45:13;;;;;;;1.47;1.00;;;22.50;85.00;;;;;;4951907;29;20430;-85
2022/05/24 13:47:48;;;;;;;4.23;1.00;;;22.80;84.10;;;;;;4951985;29;20423;-86
2022/05/24 13:50:31;;;;;;;2.30;1.10;;;22.90;83.50;;;;;;4951646;29;20485;-87